sensor_id;sensor_type;location;lat;lon;timestamp;P1;durP1;ratioP1;P2;durP2;ratioP2
48203;SDS011;33994;50.998;5.864;2023-04-03T00:00:21;10.70;;;5.10;;
48203;SDS011;33994;50.998;5.864;2023-04-03T00:03:24;7.93;;;4.95;;
48203;SDS011;33994;50.998;5.864;2023-04-03T00:06:27;7.97;;;4.90;;
48203;SDS011;33994;50.998;5.864;2023-04-03T00:09:30;10.18;;;4.88;;
48203;SDS011;33994;50.998;5.864;2023-04-03T00:12:33;7.80;;;5.15;;
48203;SDS011;33994;50.998;5.864;2023-04-03T00:15:38;7.65;;;5.22;;
48203;SDS011;33994;50.998;5.864;2023-04-03T00:18:42;7.68;;;4.95;;
48203;SDS011;33994;50.998;5.864;2023-04-03T00:21:45;6.45;;;4.47;;
48203;SDS011;33994;50.998;5.864;2023-04-03T00:24:49;8.32;;;5.20;;
48203;SDS011;33994;50.998;5.864;2023-04-03T00:27:52;7.85;;;5.53;;
48203;SDS011;33994;50.998;5.864;2023-04-03T00:30:56;12.48;;;5.90;;
48203;SDS011;33994;50.998;5.864;2023-04-03T00:33:59;9.25;;;5.32;;
48203;SDS011;33994;50.998;5.864;2023-04-03T00:37:03;10.50;;;5.30;;
48203;SDS011;33994;50.998;5.864;2023-04-03T00:40:06;9.02;;;4.97;;
48203;SDS011;33994;50.998;5.864;2023-04-03T00:43:11;8.07;;;5.07;;
48203;SDS011;33994;50.998;5.864;2023-04-03T00:46:17;10.05;;;6.00;;
48203;SDS011;33994;50.998;5.864;2023-04-03T00:49:20;7.50;;;4.97;;
48203;SDS011;33994;50.998;5.864;2023-04-03T00:52:25;13.45;;;5.28;;
48203;SDS011;33994;50.998;5.864;2023-04-03T00:55:31;11.05;;;5.30;;
48203;SDS011;33994;50.998;5.864;2023-04-03T00:58:37;9.07;;;4.82;;
48203;SDS011;33994;50.998;5.864;2023-04-03T01:01:47;12.38;;;5.47;;
48203;SDS011;33994;50.998;5.864;2023-04-03T01:04:51;8.02;;;5.40;;
48203;SDS011;33994;50.998;5.864;2023-04-03T01:07:54;11.98;;;5.18;;
48203;SDS011;33994;50.998;5.864;2023-04-03T01:10:57;14.10;;;5.43;;
48203;SDS011;33994;50.998;5.864;2023-04-03T01:14:00;11.90;;;5.75;;
48203;SDS011;33994;50.998;5.864;2023-04-03T01:24:04;8.38;;;5.55;;
48203;SDS011;33994;50.998;5.864;2023-04-03T01:27:24;9.95;;;5.18;;
48203;SDS011;33994;50.998;5.864;2023-04-03T01:30:30;7.90;;;5.18;;
48203;SDS011;33994;50.998;5.864;2023-04-03T01:33:36;7.40;;;5.28;;
48203;SDS011;33994;50.998;5.864;2023-04-03T01:36:40;9.80;;;5.75;;
48203;SDS011;33994;50.998;5.864;2023-04-03T01:39:43;7.97;;;5.50;;
48203;SDS011;33994;50.998;5.864;2023-04-03T01:42:47;8.25;;;5.13;;
48203;SDS011;33994;50.998;5.864;2023-04-03T01:45:50;9.50;;;5.55;;
48203;SDS011;33994;50.998;5.864;2023-04-03T01:48:54;7.70;;;5.10;;
48203;SDS011;33994;50.998;5.864;2023-04-03T01:51:58;7.13;;;5.30;;
48203;SDS011;33994;50.998;5.864;2023-04-03T01:55:01;9.07;;;5.85;;
48203;SDS011;33994;50.998;5.864;2023-04-03T01:58:04;9.10;;;6.07;;
48203;SDS011;33994;50.998;5.864;2023-04-03T02:01:07;9.93;;;6.03;;
48203;SDS011;33994;50.998;5.864;2023-04-03T02:04:12;10.52;;;5.90;;
48203;SDS011;33994;50.998;5.864;2023-04-03T02:07:15;11.48;;;7.38;;
48203;SDS011;33994;50.998;5.864;2023-04-03T02:10:18;10.20;;;5.50;;
48203;SDS011;33994;50.998;5.864;2023-04-03T02:13:21;7.10;;;5.63;;
48203;SDS011;33994;50.998;5.864;2023-04-03T02:16:24;8.15;;;5.82;;
48203;SDS011;33994;50.998;5.864;2023-04-03T02:19:29;10.73;;;6.32;;
48203;SDS011;33994;50.998;5.864;2023-04-03T02:22:32;8.15;;;6.10;;
48203;SDS011;33994;50.998;5.864;2023-04-03T02:25:35;9.98;;;5.70;;
48203;SDS011;33994;50.998;5.864;2023-04-03T02:28:38;9.07;;;6.00;;
48203;SDS011;33994;50.998;5.864;2023-04-03T02:31:42;10.35;;;6.32;;
48203;SDS011;33994;50.998;5.864;2023-04-03T02:34:46;10.43;;;6.05;;
48203;SDS011;33994;50.998;5.864;2023-04-03T02:37:49;13.48;;;6.88;;
48203;SDS011;33994;50.998;5.864;2023-04-03T02:40:52;11.98;;;6.30;;
48203;SDS011;33994;50.998;5.864;2023-04-03T02:43:55;10.95;;;7.00;;
48203;SDS011;33994;50.998;5.864;2023-04-03T02:46:58;10.88;;;6.55;;
48203;SDS011;33994;50.998;5.864;2023-04-03T02:50:03;10.73;;;6.22;;
48203;SDS011;33994;50.998;5.864;2023-04-03T02:53:07;9.68;;;7.25;;
48203;SDS011;33994;50.998;5.864;2023-04-03T02:56:10;14.45;;;7.10;;
48203;SDS011;33994;50.998;5.864;2023-04-03T02:59:13;10.48;;;6.43;;
48203;SDS011;33994;50.998;5.864;2023-04-03T03:02:16;12.88;;;6.90;;
48203;SDS011;33994;50.998;5.864;2023-04-03T03:05:21;9.30;;;6.60;;
48203;SDS011;33994;50.998;5.864;2023-04-03T03:08:24;13.55;;;6.78;;
48203;SDS011;33994;50.998;5.864;2023-04-03T03:11:27;10.20;;;6.47;;
48203;SDS011;33994;50.998;5.864;2023-04-03T03:14:30;12.52;;;7.25;;
48203;SDS011;33994;50.998;5.864;2023-04-03T03:17:33;10.35;;;6.88;;
48203;SDS011;33994;50.998;5.864;2023-04-03T03:20:37;11.50;;;7.65;;
48203;SDS011;33994;50.998;5.864;2023-04-03T03:23:40;11.75;;;7.15;;
48203;SDS011;33994;50.998;5.864;2023-04-03T03:26:44;10.73;;;6.35;;
48203;SDS011;33994;50.998;5.864;2023-04-03T03:29:47;11.80;;;7.32;;
48203;SDS011;33994;50.998;5.864;2023-04-03T03:32:50;13.32;;;7.72;;
48203;SDS011;33994;50.998;5.864;2023-04-03T03:35:54;9.90;;;7.10;;
48203;SDS011;33994;50.998;5.864;2023-04-03T03:38:58;10.90;;;7.07;;
48203;SDS011;33994;50.998;5.864;2023-04-03T03:42:01;10.52;;;7.47;;
48203;SDS011;33994;50.998;5.864;2023-04-03T03:45:05;14.98;;;7.25;;
48203;SDS011;33994;50.998;5.864;2023-04-03T03:48:09;12.13;;;7.47;;
48203;SDS011;33994;50.998;5.864;2023-04-03T03:51:13;13.38;;;7.75;;
48203;SDS011;33994;50.998;5.864;2023-04-03T03:54:17;11.05;;;7.40;;
48203;SDS011;33994;50.998;5.864;2023-04-03T03:57:20;11.65;;;7.65;;
48203;SDS011;33994;50.998;5.864;2023-04-03T04:00:23;15.07;;;7.80;;
48203;SDS011;33994;50.998;5.864;2023-04-03T04:03:26;14.80;;;7.88;;
48203;SDS011;33994;50.998;5.864;2023-04-03T04:06:30;12.85;;;7.53;;
48203;SDS011;33994;50.998;5.864;2023-04-03T04:09:33;11.45;;;7.75;;
48203;SDS011;33994;50.998;5.864;2023-04-03T04:12:36;13.10;;;7.80;;
48203;SDS011;33994;50.998;5.864;2023-04-03T04:15:39;12.52;;;8.27;;
48203;SDS011;33994;50.998;5.864;2023-04-03T04:18:43;13.18;;;7.82;;
48203;SDS011;33994;50.998;5.864;2023-04-03T04:21:47;13.63;;;8.32;;
48203;SDS011;33994;50.998;5.864;2023-04-03T04:24:50;12.90;;;8.65;;
48203;SDS011;33994;50.998;5.864;2023-04-03T04:27:53;15.05;;;8.63;;
48203;SDS011;33994;50.998;5.864;2023-04-03T04:30:56;16.13;;;9.10;;
48203;SDS011;33994;50.998;5.864;2023-04-03T04:34:00;16.85;;;9.48;;
48203;SDS011;33994;50.998;5.864;2023-04-03T04:37:04;15.75;;;9.32;;
48203;SDS011;33994;50.998;5.864;2023-04-03T04:40:07;14.57;;;9.23;;
48203;SDS011;33994;50.998;5.864;2023-04-03T04:43:11;19.77;;;10.13;;
48203;SDS011;33994;50.998;5.864;2023-04-03T04:46:14;14.15;;;8.98;;
48203;SDS011;33994;50.998;5.864;2023-04-03T04:49:17;22.40;;;9.57;;
48203;SDS011;33994;50.998;5.864;2023-04-03T04:52:22;15.48;;;10.38;;
48203;SDS011;33994;50.998;5.864;2023-04-03T04:55:25;18.63;;;10.13;;
48203;SDS011;33994;50.998;5.864;2023-04-03T04:58:28;17.25;;;9.98;;
48203;SDS011;33994;50.998;5.864;2023-04-03T05:01:32;15.27;;;10.07;;
48203;SDS011;33994;50.998;5.864;2023-04-03T05:04:35;19.95;;;10.40;;
48203;SDS011;33994;50.998;5.864;2023-04-03T05:07:39;15.27;;;10.07;;
48203;SDS011;33994;50.998;5.864;2023-04-03T05:10:44;18.80;;;10.48;;
48203;SDS011;33994;50.998;5.864;2023-04-03T05:13:49;15.70;;;9.07;;
48203;SDS011;33994;50.998;5.864;2023-04-03T05:16:52;16.55;;;9.32;;
48203;SDS011;33994;50.998;5.864;2023-04-03T05:19:55;18.98;;;9.00;;
48203;SDS011;33994;50.998;5.864;2023-04-03T05:22:59;15.60;;;9.82;;
48203;SDS011;33994;50.998;5.864;2023-04-03T05:26:02;17.17;;;9.68;;
48203;SDS011;33994;50.998;5.864;2023-04-03T05:29:06;14.23;;;9.23;;
48203;SDS011;33994;50.998;5.864;2023-04-03T05:32:10;15.95;;;9.15;;
48203;SDS011;33994;50.998;5.864;2023-04-03T05:35:13;11.63;;;8.38;;
48203;SDS011;33994;50.998;5.864;2023-04-03T05:38:18;15.30;;;8.85;;
48203;SDS011;33994;50.998;5.864;2023-04-03T05:41:22;14.57;;;8.25;;
48203;SDS011;33994;50.998;5.864;2023-04-03T05:44:25;15.48;;;7.60;;
48203;SDS011;33994;50.998;5.864;2023-04-03T05:47:28;15.20;;;8.70;;
48203;SDS011;33994;50.998;5.864;2023-04-03T05:50:31;15.82;;;8.10;;
48203;SDS011;33994;50.998;5.864;2023-04-03T05:53:36;12.43;;;7.57;;
48203;SDS011;33994;50.998;5.864;2023-04-03T05:56:40;12.20;;;6.95;;
48203;SDS011;33994;50.998;5.864;2023-04-03T05:59:43;12.48;;;7.43;;
48203;SDS011;33994;50.998;5.864;2023-04-03T06:02:46;12.40;;;6.80;;
48203;SDS011;33994;50.998;5.864;2023-04-03T06:05:50;10.90;;;5.90;;
48203;SDS011;33994;50.998;5.864;2023-04-03T06:08:54;11.73;;;6.82;;
48203;SDS011;33994;50.998;5.864;2023-04-03T06:11:57;12.00;;;6.70;;
48203;SDS011;33994;50.998;5.864;2023-04-03T06:15:01;15.07;;;6.30;;
48203;SDS011;33994;50.998;5.864;2023-04-03T06:18:04;12.10;;;6.78;;
48203;SDS011;33994;50.998;5.864;2023-04-03T06:21:07;13.00;;;6.22;;
48203;SDS011;33994;50.998;5.864;2023-04-03T06:24:13;12.35;;;5.70;;
48203;SDS011;33994;50.998;5.864;2023-04-03T06:27:18;13.70;;;6.00;;
48203;SDS011;33994;50.998;5.864;2023-04-03T06:30:21;9.50;;;5.13;;
48203;SDS011;33994;50.998;5.864;2023-04-03T06:33:24;13.15;;;5.15;;
48203;SDS011;33994;50.998;5.864;2023-04-03T06:36:26;8.90;;;4.53;;
48203;SDS011;33994;50.998;5.864;2023-04-03T06:39:31;7.90;;;3.95;;
48203;SDS011;33994;50.998;5.864;2023-04-03T06:42:34;5.78;;;3.58;;
48203;SDS011;33994;50.998;5.864;2023-04-03T06:45:37;8.55;;;3.40;;
48203;SDS011;33994;50.998;5.864;2023-04-03T06:48:40;4.97;;;2.78;;
48203;SDS011;33994;50.998;5.864;2023-04-03T06:51:43;5.72;;;3.20;;
48203;SDS011;33994;50.998;5.864;2023-04-03T06:54:47;9.65;;;3.33;;
48203;SDS011;33994;50.998;5.864;2023-04-03T06:57:50;7.63;;;3.85;;
48203;SDS011;33994;50.998;5.864;2023-04-03T07:00:53;6.85;;;3.70;;
48203;SDS011;33994;50.998;5.864;2023-04-03T07:03:56;4.82;;;3.08;;
48203;SDS011;33994;50.998;5.864;2023-04-03T07:07:00;9.93;;;3.90;;
48203;SDS011;33994;50.998;5.864;2023-04-03T07:10:05;7.55;;;3.58;;
48203;SDS011;33994;50.998;5.864;2023-04-03T07:13:10;8.75;;;3.72;;
48203;SDS011;33994;50.998;5.864;2023-04-03T07:16:13;7.38;;;3.33;;
48203;SDS011;33994;50.998;5.864;2023-04-03T07:19:16;7.28;;;3.53;;
48203;SDS011;33994;50.998;5.864;2023-04-03T07:22:19;12.90;;;4.53;;
48203;SDS011;33994;50.998;5.864;2023-04-03T07:25:23;8.32;;;3.80;;
48203;SDS011;33994;50.998;5.864;2023-04-03T07:28:26;9.48;;;5.45;;
48203;SDS011;33994;50.998;5.864;2023-04-03T07:31:29;8.95;;;3.53;;
48203;SDS011;33994;50.998;5.864;2023-04-03T07:34:32;6.55;;;3.75;;
48203;SDS011;33994;50.998;5.864;2023-04-03T07:37:35;8.60;;;4.15;;
48203;SDS011;33994;50.998;5.864;2023-04-03T07:40:40;9.07;;;4.25;;
48203;SDS011;33994;50.998;5.864;2023-04-03T07:43:48;9.93;;;4.07;;
48203;SDS011;33994;50.998;5.864;2023-04-03T07:46:51;8.45;;;3.88;;
48203;SDS011;33994;50.998;5.864;2023-04-03T07:49:54;15.57;;;3.92;;
48203;SDS011;33994;50.998;5.864;2023-04-03T07:52:57;11.65;;;4.45;;
48203;SDS011;33994;50.998;5.864;2023-04-03T07:56:02;10.27;;;3.50;;
48203;SDS011;33994;50.998;5.864;2023-04-03T07:59:05;10.55;;;4.05;;
48203;SDS011;33994;50.998;5.864;2023-04-03T08:02:09;8.38;;;3.63;;
48203;SDS011;33994;50.998;5.864;2023-04-03T08:05:12;11.88;;;4.15;;
48203;SDS011;33994;50.998;5.864;2023-04-03T08:08:16;9.13;;;3.80;;
48203;SDS011;33994;50.998;5.864;2023-04-03T08:11:22;7.43;;;3.92;;
48203;SDS011;33994;50.998;5.864;2023-04-03T08:14:26;8.68;;;3.95;;
48203;SDS011;33994;50.998;5.864;2023-04-03T08:17:29;6.78;;;3.33;;
48203;SDS011;33994;50.998;5.864;2023-04-03T08:20:32;8.38;;;3.25;;
48203;SDS011;33994;50.998;5.864;2023-04-03T08:23:35;6.65;;;3.53;;
48203;SDS011;33994;50.998;5.864;2023-04-03T08:26:40;9.52;;;3.75;;
48203;SDS011;33994;50.998;5.864;2023-04-03T08:29:42;8.32;;;3.50;;
48203;SDS011;33994;50.998;5.864;2023-04-03T08:32:46;8.73;;;3.40;;
48203;SDS011;33994;50.998;5.864;2023-04-03T08:35:49;10.55;;;3.97;;
48203;SDS011;33994;50.998;5.864;2023-04-03T08:38:53;7.55;;;2.70;;
48203;SDS011;33994;50.998;5.864;2023-04-03T08:41:58;6.45;;;2.65;;
48203;SDS011;33994;50.998;5.864;2023-04-03T08:45:08;5.82;;;2.80;;
48203;SDS011;33994;50.998;5.864;2023-04-03T08:48:15;5.95;;;2.78;;
48203;SDS011;33994;50.998;5.864;2023-04-03T08:51:22;5.32;;;1.98;;
48203;SDS011;33994;50.998;5.864;2023-04-03T08:54:28;6.45;;;2.05;;
48203;SDS011;33994;50.998;5.864;2023-04-03T08:57:39;6.05;;;2.35;;
48203;SDS011;33994;50.998;5.864;2023-04-03T09:00:44;8.30;;;2.50;;
48203;SDS011;33994;50.998;5.864;2023-04-03T09:03:50;4.18;;;2.00;;
48203;SDS011;33994;50.998;5.864;2023-04-03T09:06:54;3.88;;;1.77;;
48203;SDS011;33994;50.998;5.864;2023-04-03T09:10:00;5.55;;;2.10;;
48203;SDS011;33994;50.998;5.864;2023-04-03T09:13:06;7.25;;;2.00;;
48203;SDS011;33994;50.998;5.864;2023-04-03T09:16:16;6.18;;;1.67;;
48203;SDS011;33994;50.998;5.864;2023-04-03T09:19:31;7.95;;;1.48;;
48203;SDS011;33994;50.998;5.864;2023-04-03T09:22:41;3.70;;;1.30;;
48203;SDS011;33994;50.998;5.864;2023-04-03T09:25:45;6.20;;;1.38;;
48203;SDS011;33994;50.998;5.864;2023-04-03T09:28:50;4.55;;;1.40;;
48203;SDS011;33994;50.998;5.864;2023-04-03T09:31:56;3.95;;;1.65;;
48203;SDS011;33994;50.998;5.864;2023-04-03T09:35:03;4.05;;;1.35;;
48203;SDS011;33994;50.998;5.864;2023-04-03T09:38:18;7.65;;;1.63;;
48203;SDS011;33994;50.998;5.864;2023-04-03T09:41:23;6.85;;;2.05;;
48203;SDS011;33994;50.998;5.864;2023-04-03T09:44:28;3.60;;;1.50;;
48203;SDS011;33994;50.998;5.864;2023-04-03T09:47:33;6.70;;;1.67;;
48203;SDS011;33994;50.998;5.864;2023-04-03T09:50:38;3.10;;;1.20;;
48203;SDS011;33994;50.998;5.864;2023-04-03T09:53:54;2.97;;;1.30;;
48203;SDS011;33994;50.998;5.864;2023-04-03T09:56:58;3.15;;;1.58;;
48203;SDS011;33994;50.998;5.864;2023-04-03T10:00:10;1.90;;;1.33;;
48203;SDS011;33994;50.998;5.864;2023-04-03T10:03:25;4.63;;;1.25;;
48203;SDS011;33994;50.998;5.864;2023-04-03T10:06:31;3.15;;;1.50;;
48203;SDS011;33994;50.998;5.864;2023-04-03T10:09:35;4.05;;;1.40;;
48203;SDS011;33994;50.998;5.864;2023-04-03T10:12:38;5.18;;;1.30;;
48203;SDS011;33994;50.998;5.864;2023-04-03T10:15:43;2.65;;;1.30;;
48203;SDS011;33994;50.998;5.864;2023-04-03T10:18:49;5.32;;;1.50;;
48203;SDS011;33994;50.998;5.864;2023-04-03T10:22:02;3.92;;;1.30;;
48203;SDS011;33994;50.998;5.864;2023-04-03T10:25:14;4.30;;;1.33;;
48203;SDS011;33994;50.998;5.864;2023-04-03T10:28:24;5.43;;;1.30;;
48203;SDS011;33994;50.998;5.864;2023-04-03T10:31:36;5.13;;;1.50;;
48203;SDS011;33994;50.998;5.864;2023-04-03T10:34:46;3.20;;;0.98;;
48203;SDS011;33994;50.998;5.864;2023-04-03T10:37:52;3.88;;;1.30;;
48203;SDS011;33994;50.998;5.864;2023-04-03T10:41:04;2.95;;;1.30;;
48203;SDS011;33994;50.998;5.864;2023-04-03T10:44:16;7.05;;;1.60;;
48203;SDS011;33994;50.998;5.864;2023-04-03T10:47:32;5.28;;;1.38;;
48203;SDS011;33994;50.998;5.864;2023-04-03T10:50:44;2.28;;;1.10;;
48203;SDS011;33994;50.998;5.864;2023-04-03T10:53:56;4.85;;;1.23;;
48203;SDS011;33994;50.998;5.864;2023-04-03T10:57:04;4.78;;;1.48;;
48203;SDS011;33994;50.998;5.864;2023-04-03T11:00:13;2.28;;;1.20;;
48203;SDS011;33994;50.998;5.864;2023-04-03T11:03:26;2.45;;;1.10;;
48203;SDS011;33994;50.998;5.864;2023-04-03T11:06:36;4.68;;;0.90;;
48203;SDS011;33994;50.998;5.864;2023-04-03T11:09:44;2.78;;;1.10;;
48203;SDS011;33994;50.998;5.864;2023-04-03T11:12:51;4.53;;;1.33;;
48203;SDS011;33994;50.998;5.864;2023-04-03T11:15:57;3.95;;;1.40;;
48203;SDS011;33994;50.998;5.864;2023-04-03T11:19:03;5.70;;;1.45;;
48203;SDS011;33994;50.998;5.864;2023-04-03T11:22:16;4.00;;;1.20;;
48203;SDS011;33994;50.998;5.864;2023-04-03T11:25:25;3.15;;;1.40;;
48203;SDS011;33994;50.998;5.864;2023-04-03T11:28:32;4.35;;;1.33;;
48203;SDS011;33994;50.998;5.864;2023-04-03T11:31:43;3.65;;;2.33;;
48203;SDS011;33994;50.998;5.864;2023-04-03T11:35:05;3.83;;;1.42;;
48203;SDS011;33994;50.998;5.864;2023-04-03T11:38:13;3.55;;;1.20;;
48203;SDS011;33994;50.998;5.864;2023-04-03T11:41:24;4.55;;;1.75;;
48203;SDS011;33994;50.998;5.864;2023-04-03T11:44:32;6.55;;;1.25;;
48203;SDS011;33994;50.998;5.864;2023-04-03T11:47:43;7.90;;;1.63;;
48203;SDS011;33994;50.998;5.864;2023-04-03T11:50:50;2.88;;;1.30;;
48203;SDS011;33994;50.998;5.864;2023-04-03T11:53:53;5.07;;;1.50;;
48203;SDS011;33994;50.998;5.864;2023-04-03T11:56:56;3.45;;;1.25;;
48203;SDS011;33994;50.998;5.864;2023-04-03T11:59:59;4.35;;;1.52;;
48203;SDS011;33994;50.998;5.864;2023-04-03T12:07:11;6.72;;;1.60;;
48203;SDS011;33994;50.998;5.864;2023-04-03T12:10:16;3.75;;;1.40;;
48203;SDS011;33994;50.998;5.864;2023-04-03T12:13:20;3.03;;;1.20;;
48203;SDS011;33994;50.998;5.864;2023-04-03T12:16:24;2.30;;;1.10;;
48203;SDS011;33994;50.998;5.864;2023-04-03T12:19:31;4.95;;;1.25;;
48203;SDS011;33994;50.998;5.864;2023-04-03T12:22:39;12.35;;;1.67;;
48203;SDS011;33994;50.998;5.864;2023-04-03T12:26:20;5.20;;;1.23;;
48203;SDS011;33994;50.998;5.864;2023-04-03T12:29:25;3.40;;;1.42;;
48203;SDS011;33994;50.998;5.864;2023-04-03T12:32:41;4.00;;;1.30;;
48203;SDS011;33994;50.998;5.864;2023-04-03T12:35:56;3.58;;;1.27;;
48203;SDS011;33994;50.998;5.864;2023-04-03T12:39:12;3.92;;;1.75;;
48203;SDS011;33994;50.998;5.864;2023-04-03T12:42:30;3.97;;;1.67;;
48203;SDS011;33994;50.998;5.864;2023-04-03T12:45:41;2.95;;;1.58;;
48203;SDS011;33994;50.998;5.864;2023-04-03T12:48:49;7.70;;;1.48;;
48203;SDS011;33994;50.998;5.864;2023-04-03T12:51:53;3.80;;;1.50;;
48203;SDS011;33994;50.998;5.864;2023-04-03T12:54:58;9.63;;;1.38;;
48203;SDS011;33994;50.998;5.864;2023-04-03T12:58:13;4.45;;;1.30;;
48203;SDS011;33994;50.998;5.864;2023-04-03T13:01:17;2.42;;;1.10;;
48203;SDS011;33994;50.998;5.864;2023-04-03T13:04:23;3.40;;;1.23;;
48203;SDS011;33994;50.998;5.864;2023-04-03T13:07:28;4.03;;;1.60;;
48203;SDS011;33994;50.998;5.864;2023-04-03T13:10:49;4.03;;;1.63;;
48203;SDS011;33994;50.998;5.864;2023-04-03T13:13:57;5.53;;;1.38;;
48203;SDS011;33994;50.998;5.864;2023-04-03T13:17:03;8.02;;;1.67;;
48203;SDS011;33994;50.998;5.864;2023-04-03T13:20:10;3.15;;;1.52;;
48203;SDS011;33994;50.998;5.864;2023-04-03T13:23:14;5.38;;;1.50;;
48203;SDS011;33994;50.998;5.864;2023-04-03T13:26:24;3.72;;;1.25;;
48203;SDS011;33994;50.998;5.864;2023-04-03T13:29:32;4.85;;;1.30;;
48203;SDS011;33994;50.998;5.864;2023-04-03T13:32:36;5.68;;;1.80;;
48203;SDS011;33994;50.998;5.864;2023-04-03T13:35:40;4.43;;;1.33;;
48203;SDS011;33994;50.998;5.864;2023-04-03T13:38:44;2.90;;;1.38;;
48203;SDS011;33994;50.998;5.864;2023-04-03T13:41:50;3.17;;;1.38;;
48203;SDS011;33994;50.998;5.864;2023-04-03T13:45:09;4.25;;;1.50;;
48203;SDS011;33994;50.998;5.864;2023-04-03T13:48:16;3.05;;;1.38;;
48203;SDS011;33994;50.998;5.864;2023-04-03T13:51:22;3.33;;;1.33;;
48203;SDS011;33994;50.998;5.864;2023-04-03T13:54:29;3.47;;;1.33;;
48203;SDS011;33994;50.998;5.864;2023-04-03T13:57:36;4.47;;;1.27;;
48203;SDS011;33994;50.998;5.864;2023-04-03T14:00:40;1.70;;;1.00;;
48203;SDS011;33994;50.998;5.864;2023-04-03T14:03:54;4.88;;;1.05;;
48203;SDS011;33994;50.998;5.864;2023-04-03T14:06:58;3.58;;;1.08;;
48203;SDS011;33994;50.998;5.864;2023-04-03T14:10:02;4.63;;;1.30;;
48203;SDS011;33994;50.998;5.864;2023-04-03T14:13:08;3.67;;;1.33;;
48203;SDS011;33994;50.998;5.864;2023-04-03T14:19:20;4.20;;;1.30;;
48203;SDS011;33994;50.998;5.864;2023-04-03T14:22:26;3.30;;;1.13;;
48203;SDS011;33994;50.998;5.864;2023-04-03T14:25:31;2.65;;;1.10;;
48203;SDS011;33994;50.998;5.864;2023-04-03T14:28:35;4.47;;;1.38;;
48203;SDS011;33994;50.998;5.864;2023-04-03T14:31:39;1.65;;;0.80;;
48203;SDS011;33994;50.998;5.864;2023-04-03T14:34:43;6.70;;;1.00;;
48203;SDS011;33994;50.998;5.864;2023-04-03T14:37:46;4.07;;;1.20;;
48203;SDS011;33994;50.998;5.864;2023-04-03T14:40:50;4.28;;;1.40;;
48203;SDS011;33994;50.998;5.864;2023-04-03T14:43:56;2.28;;;0.90;;
48203;SDS011;33994;50.998;5.864;2023-04-03T14:46:59;2.75;;;1.10;;
48203;SDS011;33994;50.998;5.864;2023-04-03T14:50:03;2.58;;;1.42;;
48203;SDS011;33994;50.998;5.864;2023-04-03T14:53:09;3.20;;;1.30;;
48203;SDS011;33994;50.998;5.864;2023-04-03T14:56:16;4.07;;;1.20;;
48203;SDS011;33994;50.998;5.864;2023-04-03T14:59:23;3.90;;;1.33;;
48203;SDS011;33994;50.998;5.864;2023-04-03T15:02:28;4.97;;;2.08;;
48203;SDS011;33994;50.998;5.864;2023-04-03T15:05:34;2.10;;;1.20;;
48203;SDS011;33994;50.998;5.864;2023-04-03T15:08:38;2.80;;;1.55;;
48203;SDS011;33994;50.998;5.864;2023-04-03T15:11:41;4.72;;;1.20;;
48203;SDS011;33994;50.998;5.864;2023-04-03T15:14:46;5.22;;;1.33;;
48203;SDS011;33994;50.998;5.864;2023-04-03T15:17:51;3.08;;;0.98;;
48203;SDS011;33994;50.998;5.864;2023-04-03T15:20:55;2.83;;;0.93;;
48203;SDS011;33994;50.998;5.864;2023-04-03T15:23:58;2.08;;;1.20;;
48203;SDS011;33994;50.998;5.864;2023-04-03T15:27:01;3.92;;;1.33;;
48203;SDS011;33994;50.998;5.864;2023-04-03T15:30:07;3.17;;;1.45;;
48203;SDS011;33994;50.998;5.864;2023-04-03T15:33:14;4.97;;;1.42;;
48203;SDS011;33994;50.998;5.864;2023-04-03T15:36:17;3.35;;;1.35;;
48203;SDS011;33994;50.998;5.864;2023-04-03T15:39:20;4.38;;;1.45;;
48203;SDS011;33994;50.998;5.864;2023-04-03T15:42:24;3.38;;;1.67;;
48203;SDS011;33994;50.998;5.864;2023-04-03T15:45:29;5.10;;;1.60;;
48203;SDS011;33994;50.998;5.864;2023-04-03T15:48:33;3.53;;;1.48;;
48203;SDS011;33994;50.998;5.864;2023-04-03T15:51:36;3.40;;;1.50;;
48203;SDS011;33994;50.998;5.864;2023-04-03T15:54:39;2.88;;;1.10;;
48203;SDS011;33994;50.998;5.864;2023-04-03T15:57:43;6.57;;;1.80;;
48203;SDS011;33994;50.998;5.864;2023-04-03T16:00:47;11.18;;;2.33;;
48203;SDS011;33994;50.998;5.864;2023-04-03T16:03:50;5.35;;;1.70;;
48203;SDS011;33994;50.998;5.864;2023-04-03T16:06:53;4.32;;;1.42;;
48203;SDS011;33994;50.998;5.864;2023-04-03T16:09:56;3.20;;;1.30;;
48203;SDS011;33994;50.998;5.864;2023-04-03T16:12:59;3.25;;;1.30;;
48203;SDS011;33994;50.998;5.864;2023-04-03T16:16:04;6.47;;;1.75;;
48203;SDS011;33994;50.998;5.864;2023-04-03T16:19:08;3.85;;;1.35;;
48203;SDS011;33994;50.998;5.864;2023-04-03T16:22:12;4.60;;;1.58;;
48203;SDS011;33994;50.998;5.864;2023-04-03T16:25:15;5.00;;;1.23;;
48203;SDS011;33994;50.998;5.864;2023-04-03T16:28:19;2.63;;;1.42;;
48203;SDS011;33994;50.998;5.864;2023-04-03T16:31:24;3.40;;;1.30;;
48203;SDS011;33994;50.998;5.864;2023-04-03T16:34:28;3.60;;;1.25;;
48203;SDS011;33994;50.998;5.864;2023-04-03T16:37:31;6.30;;;1.63;;
48203;SDS011;33994;50.998;5.864;2023-04-03T16:40:34;3.53;;;1.40;;
48203;SDS011;33994;50.998;5.864;2023-04-03T16:43:38;4.05;;;1.52;;
48203;SDS011;33994;50.998;5.864;2023-04-03T16:46:42;1.88;;;1.10;;
48203;SDS011;33994;50.998;5.864;2023-04-03T16:49:46;2.78;;;1.30;;
48203;SDS011;33994;50.998;5.864;2023-04-03T16:52:49;3.30;;;1.25;;
48203;SDS011;33994;50.998;5.864;2023-04-03T16:55:53;2.28;;;1.30;;
48203;SDS011;33994;50.998;5.864;2023-04-03T16:58:56;3.92;;;1.20;;
48203;SDS011;33994;50.998;5.864;2023-04-03T17:02:01;6.70;;;2.72;;
48203;SDS011;33994;50.998;5.864;2023-04-03T17:05:04;4.75;;;1.40;;
48203;SDS011;33994;50.998;5.864;2023-04-03T17:08:08;4.53;;;1.35;;
48203;SDS011;33994;50.998;5.864;2023-04-03T17:11:11;4.57;;;1.25;;
48203;SDS011;33994;50.998;5.864;2023-04-03T17:14:14;3.33;;;1.33;;
48203;SDS011;33994;50.998;5.864;2023-04-03T17:17:20;5.40;;;1.45;;
48203;SDS011;33994;50.998;5.864;2023-04-03T17:20:26;3.92;;;1.10;;
48203;SDS011;33994;50.998;5.864;2023-04-03T17:23:29;3.08;;;1.10;;
48203;SDS011;33994;50.998;5.864;2023-04-03T17:26:32;4.57;;;1.67;;
48203;SDS011;33994;50.998;5.864;2023-04-03T17:29:35;3.97;;;1.20;;
48203;SDS011;33994;50.998;5.864;2023-04-03T17:32:40;3.88;;;1.50;;
48203;SDS011;33994;50.998;5.864;2023-04-03T17:35:43;4.03;;;1.00;;
48203;SDS011;33994;50.998;5.864;2023-04-03T17:38:46;5.32;;;1.50;;
48203;SDS011;33994;50.998;5.864;2023-04-03T17:41:49;4.82;;;1.40;;
48203;SDS011;33994;50.998;5.864;2023-04-03T17:44:52;3.20;;;1.20;;
48203;SDS011;33994;50.998;5.864;2023-04-03T17:47:57;2.15;;;1.00;;
48203;SDS011;33994;50.998;5.864;2023-04-03T17:51:02;3.05;;;1.60;;
48203;SDS011;33994;50.998;5.864;2023-04-03T17:54:06;5.10;;;1.48;;
48203;SDS011;33994;50.998;5.864;2023-04-03T17:57:09;4.70;;;1.60;;
48203;SDS011;33994;50.998;5.864;2023-04-03T18:00:13;3.17;;;1.58;;
48203;SDS011;33994;50.998;5.864;2023-04-03T18:03:18;4.68;;;1.40;;
48203;SDS011;33994;50.998;5.864;2023-04-03T18:06:23;6.05;;;1.27;;
48203;SDS011;33994;50.998;5.864;2023-04-03T18:09:29;6.78;;;1.58;;
48203;SDS011;33994;50.998;5.864;2023-04-03T18:12:34;5.30;;;1.40;;
48203;SDS011;33994;50.998;5.864;2023-04-03T18:15:38;4.80;;;1.33;;
48203;SDS011;33994;50.998;5.864;2023-04-03T18:18:43;4.13;;;1.50;;
48203;SDS011;33994;50.998;5.864;2023-04-03T18:21:46;6.20;;;1.42;;
48203;SDS011;33994;50.998;5.864;2023-04-03T18:24:49;5.63;;;2.00;;
48203;SDS011;33994;50.998;5.864;2023-04-03T18:27:54;5.32;;;1.67;;
48203;SDS011;33994;50.998;5.864;2023-04-03T18:30:57;7.38;;;2.58;;
48203;SDS011;33994;50.998;5.864;2023-04-03T18:34:02;4.47;;;1.73;;
48203;SDS011;33994;50.998;5.864;2023-04-03T18:37:06;3.92;;;1.50;;
48203;SDS011;33994;50.998;5.864;2023-04-03T18:40:09;4.95;;;2.08;;
48203;SDS011;33994;50.998;5.864;2023-04-03T18:43:13;3.00;;;1.67;;